Station info - map view · info · telemetry · weather · raw · status · beacons · messages · bulletins · browse · moving · my account
Callsign, ship name or locator: Clear       
It is possible to search using wildcards (*?) after a prefix. Example: OH*
APRS station VE2FA-7 - show graphs
Map loading...
Comment: 73 de VE1FFA Nova Scotia
Mic-E message: Off duty
Location: 28°20.69' N 81°36.16' W - locator EL98EI72QS - show map - static map
2.5 miles East bearing 73° from Citrus Ridge, Polk County, Florida, United States [?]
4.4 miles West bearing 288° from Celebration, Osceola County, Florida, United States
58.9 miles Northeast bearing 62° from Tampa, Hillsborough County, Florida, United States
76.6 miles Northeast bearing 59° from Saint Petersburg, Pinellas County, Florida, United States
Last position: 2020-01-27 17:21:42 EST (1d 11h2m ago)
2020-01-27 17:21:42 EST local time at Citrus Ridge, United States [?]
Altitude: 115 ft
Course: 131°
Speed: 35 MPH
Device: Kenwood: TM-D710 (rig)
Last path: VE2FA-7>RXRP6Y via WC4PEM-14*,WIDE1*,WIDE2-1,qAR,W4KBW (good)
Positions stored: 28611
Packet rate: 219 seconds between packets on average during 5463 seconds.
Stations near current position of VE2FA-7 - show more
callsign distance last heard - EST      callsign distance last heard - EST
K9UTQ-20.6 miles 281°2020-01-28 17:07:10 VE3FRE-81.1 miles 156°2020-01-28 14:54:49
KI5US1.9 miles 107°2020-01-28 21:20:14 PU5EJG-52.5 miles 270°2020-01-20 20:11:17
AD4DW B2.5 miles 295°2020-01-28 14:47:05 AD4DW-B2.5 miles 295°2020-01-28 14:47:15
KJ4UJW-13.3 miles 187°2020-01-29 04:06:54 W4RNF B3.9 miles 120°2020-01-29 04:07:16
W4RNF-B3.9 miles 120°2020-01-29 04:07:27 KD2TCQ-74.4 miles 19°2020-01-12 07:26:14
EW29104.6 miles 230°2020-01-29 04:15:24 KE0YWJ-74.7 miles 37°2020-01-20 07:00:15
N3WGC-124.9 miles 34°2020-01-28 15:08:19 KF5UJN-55.1 miles 15°2020-01-24 15:55:41
WD0DIR5.2 miles 31°2020-01-26 14:18:47 N9IP-35.3 miles 31°2020-01-27 16:35:53
WV2NY-95.4 miles 105°2020-01-13 17:39:10 WD4WDW B5.6 miles 51°2020-01-29 04:09:59
WD4WDW-B5.6 miles 51°2020-01-29 04:09:45 W4SDC B5.7 miles 293°2020-01-29 04:08:28
Stations which heard VE2FA-7 directly on radio –
callsign pkts first heard - EST last heard longest (tx => rx) longest at - EST
KB1AEV-15 1 2020-01-01 10:17:55 2020-01-01 10:17:55 FN31NH > FN31ST 41.8 miles 34° 2020-01-01 10:17:55
W3UD-3 6 2020-01-01 13:07:23 2020-01-01 14:18:50 FM29GQ > FM29CQ 15.3 miles 273° 2020-01-01 13:07:23
WC4PEM-9 6 2020-01-06 17:01:18 2020-01-22 19:22:53 EL98HH > EL98CE 24.0 miles 254° 2020-01-13 13:48:10
KB2M 1 2020-01-03 11:01:16 2020-01-03 11:01:16 EL99JO > EL99JO 2.6 miles 104° 2020-01-03 11:01:16
WC4PEM-10 10 2020-01-03 13:01:29 2020-01-23 11:05:56 EL98GJ > EL97CV 40.2 miles 210° 2020-01-23 10:42:13
WC4PEM-14 456 2020-01-03 12:26:23 2020-01-27 17:21:42 EL98HN > EL98EG 26.6 miles 219° 2020-01-03 12:26:23
KO4L-9 8 2020-01-02 10:45:33 2020-01-02 11:05:22 FM04AC > FM04CF 11.5 miles 39° 2020-01-02 11:05:22
N3KTX-1 1 2020-01-01 15:23:59 2020-01-01 15:23:59 FM19QF > FM19PG 7.8 miles 294° 2020-01-01 15:23:59
W1WQM 1 2020-01-01 06:58:32 2020-01-01 06:58:32 FN43PD > FN43NA 10.8 miles 224° 2020-01-01 06:58:32
N2MH-15 2 2020-01-01 11:36:43 2020-01-01 11:39:51 FN20WS > FN20UT 8.1 miles 276° 2020-01-01 11:39:51
WC4PEM-15 31 2020-01-08 12:39:41 2020-01-27 17:03:50 EL98GL > EL98EA 34.8 miles 197° 2020-01-15 11:48:28
N3XJT-1 7 2020-01-01 13:38:47 2020-01-01 14:25:27 FM29DQ > FM29AN 17.1 miles 245° 2020-01-01 14:25:27
K4CCC-9 2 2020-01-02 10:30:32 2020-01-02 10:34:36 FM04EH > FM04BR 32.9 miles 336° 2020-01-02 10:34:36
KG4URP-1 3 2020-01-01 16:24:06 2020-01-01 16:41:37 FM18JQ > FM18IQ 3.8 miles 254° 2020-01-01 16:24:06
W4RAT-5 3 2020-01-02 06:34:18 2020-01-02 06:44:19 FM17HH > FM17IE 9.1 miles 145° 2020-01-02 06:34:18
W2AEE 2 2020-01-01 11:16:43 2020-01-01 11:41:45 FN20WR > FN30AT 12.1 miles 55° 2020-01-01 11:41:45
W4KBW 27 2020-01-03 12:21:49 2020-01-15 15:38:45 EL98GK > EL98HN 12.6 miles 40° 2020-01-06 14:06:44
NV4FM-5 2 2020-01-01 15:59:04 2020-01-01 16:09:08 FM19KA > FM18JV 8.7 miles 212° 2020-01-01 15:59:04
W4IY 2 2020-01-01 16:41:42 2020-01-01 16:45:13 FM18IP > FM18IP 0.4 miles 131° 2020-01-01 16:45:13
WB2ZII-15 1 2020-01-01 11:31:42 2020-01-01 11:31:42 FN20XT > FN31CG 32.7 miles 20° 2020-01-01 11:31:42
N1LMA-9 1 2020-01-01 09:22:37 2020-01-01 09:22:37 FN41BJ > FN41AI 3.7 miles 235° 2020-01-01 09:22:37
W1TG-1 2 2020-01-01 07:08:31 2020-01-01 07:13:32 FN43NA > FN42OW 4.8 miles 169° 2020-01-01 07:08:31
KB1BVF 1 2020-01-01 09:42:36 2020-01-01 09:42:36 FN31UH > FN31UH 1.9 miles 105° 2020-01-01 09:42:36
EKONCT 2 2020-01-01 08:52:34 2020-01-01 08:57:34 FN41GR > FN41BP 21.0 miles 257° 2020-01-01 08:52:34
WR4AGC-3 2 2020-01-02 08:45:22 2020-01-02 09:10:23 FM05WN > FM06LB 60.4 miles 304° 2020-01-02 08:45:22
N4TUF-2 1 2020-01-02 08:09:25 2020-01-02 08:09:25 FM15BW > FM15CX 3.7 miles 76° 2020-01-02 08:09:25
W1MHL 2 2020-01-01 08:12:31 2020-01-01 08:17:31 FN42KF > FN42IJ 12.5 miles 339° 2020-01-01 08:17:31
W4GSR-3 2 2020-01-02 11:32:01 2020-01-02 11:36:40 EM93UP > FM03AM 18.4 miles 114° 2020-01-02 11:36:40
N1KGM-1 1 2020-01-01 10:32:54 2020-01-01 10:32:54 FN31JE > FN31JG 6.6 miles 339° 2020-01-01 10:32:54
MCU-4 1 2020-01-01 09:37:38 2020-01-01 09:37:38 FN31VI > FN31VI 1.3 miles 18° 2020-01-01 09:37:38
WA4USN-9 3 2020-01-02 11:57:03 2020-01-02 12:08:42 EM93RG > EM93RD 7.7 miles 181° 2020-01-02 12:03:56
W4NAS 5 2020-01-02 14:39:58 2020-01-02 15:15:00 EM90DW > EM90CO 24.3 miles 201° 2020-01-02 14:39:58
AE4ML-1 1 2020-01-01 17:11:40 2020-01-01 17:11:40 FM18FH > FM18GH 2.7 miles 113° 2020-01-01 17:11:40
NE4SC-12 1 2020-01-02 10:56:47 2020-01-02 10:56:47 FM04BD > FM03KW 45.7 miles 108° 2020-01-02 10:56:47
N3LLO-3 2 2020-01-01 07:46:37 2020-01-01 07:52:28 FN42KM > FN42BS 44.5 miles 294° 2020-01-01 07:52:28
N3LEE-4 2 2020-01-01 08:37:31 2020-01-01 08:42:32 FN41IW > FN41FX 12.1 miles 289° 2020-01-01 08:37:31
KB2EAR-1 1 2020-01-01 12:01:48 2020-01-01 12:01:48 FN20SK > FN20RO 13.8 miles 327° 2020-01-01 12:01:48
KB1VNR 1 2020-01-01 09:47:37 2020-01-01 09:47:37 FN31SG > FN31SH 0.5 miles 334° 2020-01-01 09:47:37
NS1RA-2 2 2020-01-01 07:33:33 2020-01-01 07:51:37 FN42KM > FN42MN 8.4 miles 51° 2020-01-01 07:51:37
WASHCT 1 2020-01-01 10:32:57 2020-01-01 10:32:57 FN31JE > FN31HP 32.4 miles 345° 2020-01-01 10:32:57
MATWAN 4 2020-01-01 11:51:44 2020-01-01 12:06:48 FN20SI > FN20VJ 12.1 miles 78° 2020-01-01 12:06:48
W1XM 1 2020-01-01 08:07:30 2020-01-01 08:07:30 FN42II > FN42KI 9.0 miles 87° 2020-01-01 08:07:30
KB1MKD-2 1 2020-01-01 07:43:33 2020-01-01 07:43:33 FN42KM > FN42KM 0.5 miles 276° 2020-01-01 07:43:33
K3ARS-3 2 2020-01-01 14:58:51 2020-01-01 15:02:56 FM19VL > FM19VF 18.9 miles 168° 2020-01-01 15:02:56
NE1CU-10 1 2020-01-01 10:22:53 2020-01-01 10:22:53 FN31MG > FN31LF 1.2 miles 217° 2020-01-01 10:22:53
NE1CU-1 1 2020-01-01 10:27:54 2020-01-01 10:27:54 FN31KF > FN31KE 2.1 miles 260° 2020-01-01 10:27:54
WA1PLE-13 1 2020-01-01 08:27:31 2020-01-01 08:27:31 FN42JB > FN42JD 4.3 miles 359° 2020-01-01 08:27:31
K3PDR-3 1 2020-01-01 12:36:50 2020-01-01 12:36:50 FM29NX > FN20JB 16.5 miles 299° 2020-01-01 12:36:50
K3FOX-1 2 2020-01-01 15:23:57 2020-01-01 15:28:58 FM19QF > FM19QF 3.3 miles 235° 2020-01-01 15:23:57
W4KEL-12 2 2020-01-01 17:26:40 2020-01-01 17:56:42 FM17GP > FM08QH 76.8 miles 306° 2020-01-01 17:56:42
KM4VHX-10 1 2020-01-01 17:16:40 2020-01-01 17:16:40 FM18GF > FM18GF 1.8 miles 119° 2020-01-01 17:16:40
KH6JJD-10 1 2020-01-01 16:14:06 2020-01-01 16:14:06 FM18JU > FM18JT 1.3 miles 253° 2020-01-01 16:14:06
W1IMD 1 2020-01-01 06:23:30 2020-01-01 06:23:30 FN43TP > FN43OU 27.4 miles 301° 2020-01-01 06:23:30
KK4JMW 3 2020-01-02 14:12:09 2020-01-02 14:17:46 EM91FF > EM91GF 3.5 miles 92° 2020-01-02 14:17:46
N4DBM-9 10 2020-01-02 09:25:25 2020-01-02 10:13:36 FM05OC > FM04LT 28.0 miles 216° 2020-01-02 09:33:35
WB2ZII-14 1 2020-01-01 11:26:43 2020-01-01 11:26:43 FN30AU > FN31BH 31.3 miles 8° 2020-01-01 11:26:43
K0JEB 1 2020-01-01 09:27:36 2020-01-01 09:27:36 FN31XI > FN31XI 1.1 miles 202° 2020-01-01 09:27:36
W4POT-1 1 2020-01-03 11:26:17 2020-01-03 11:26:17 EL99KE > EL99ME 6.1 miles 91° 2020-01-03 11:26:17
N4DBM-1 1 2020-01-02 10:00:30 2020-01-02 10:00:30 FM04KO > FM04QN 26.1 miles 94° 2020-01-02 10:00:30
N1MNU-9 2 2020-01-01 06:28:31 2020-01-01 06:33:31 FN43TN > FN43TL 5.4 miles 179° 2020-01-01 06:28:31
KA4CID-1 1 2020-01-02 13:42:08 2020-01-02 13:42:08 EM91HS > EM91GS 3.7 miles 281° 2020-01-02 13:42:08
W2MMD-13 2 2020-01-01 12:52:20 2020-01-01 12:57:22 FM29JT > FM29JR 6.3 miles 192° 2020-01-01 12:52:20
KO3O-10 2 2020-01-03 11:46:18 2020-01-03 11:56:20 EL98HT > EL98IV 7.6 miles 40° 2020-01-03 11:56:20
KC3LVM-10 1 2020-01-01 06:18:29 2020-01-01 06:18:29 FN43UO > FN43VP 3.9 miles 76° 2020-01-01 06:18:29
KD2QKS-10 1 2020-01-01 12:16:48 2020-01-01 12:16:48 FN20RF > FN20QE 1.9 miles 262° 2020-01-01 12:16:48
KB1YCA-10 1 2020-01-01 10:17:53 2020-01-01 10:17:53 FN31NH > FN31MG 4.4 miles 245° 2020-01-01 10:17:53
K1SCQ 1 2020-01-01 07:03:31 2020-01-01 07:03:31 FN43OB > FN43NC 3.7 miles 294° 2020-01-01 07:03:31
N3IP 1 2020-01-01 13:17:23 2020-01-01 13:17:23 FM29EQ > FM29FV 15.7 miles 26° 2020-01-01 13:17:23

Only position packets which were originated by the station are shown here. The range statistics show some extra long hops, because some digipeaters do not correctly add themselves to the digipeater path. Please check the raw packets.
About this site
This page shows real-time information collected from the Automatic Position Reporting System Internet network (APRS-IS). APRS is used by amateur (ham) radio operators to transmit real-time position information, weather data, telemetry and messages over the radio. A vehicle equipped with a GPS receiver, a VHF transmitter or HF transceiver and a small computer device called a tracker transmits it's location, speed and course in a small data packet, which is then received by a nearby iGate receiving site which forwards the packet on the Internet. Systems connected to the Internet can send information on the APRS-IS without a radio transmitter, or collect and display information transmitted anywhere in the world.
User guide · FAQ · Blog · Discussion group · Linking to aprs.fi · AIS sites · Service status · Database statistics · Advertising on aprs.fi · Technical details · API · Change log · Planned changes · Credits and thanks · Terms Of Service · iPhone/iPad APRS